createdAt,value
2022-09-22T00:04:28.705Z,100590.81
2022-09-22T00:09:31.516Z,100602.38
2022-09-22T00:14:34.523Z,100594.59
2022-09-22T00:19:38.208Z,100598.53
2022-09-22T00:24:43.419Z,100596.72
2022-09-22T00:29:47.198Z,100599.09
2022-09-22T00:34:50.442Z,100585.19
2022-09-22T00:39:53.942Z,100587.00
2022-09-22T00:44:56.879Z,100579.59
2022-09-22T00:50:19.022Z,100578.06
2022-09-22T00:55:43.862Z,100572.25
2022-09-22T01:00:46.929Z,100573.75
2022-09-22T01:05:54.860Z,100574.03
2022-09-22T01:10:59.609Z,100577.94
2022-09-22T01:16:21.801Z,100567.91
2022-09-22T01:21:48.286Z,100572.09
2022-09-22T01:27:06.228Z,100572.63
2022-09-22T01:32:42.872Z,100565.66
2022-09-22T01:38:13.129Z,100555.63
2022-09-22T01:43:40.752Z,100568.16
2022-09-22T01:48:50.941Z,100576.22
2022-09-22T01:54:01.323Z,100569.84
2022-09-22T01:59:07.407Z,100574.44
2022-09-22T02:04:26.523Z,100562.88
2022-09-22T02:09:32.974Z,100568.19
2022-09-22T02:14:35.996Z,100563.44
2022-09-22T02:19:41.135Z,100561.50
2022-09-22T02:24:46.564Z,100560.50
2022-09-22T02:30:08.243Z,100559.94
2022-09-22T02:35:11.346Z,100565.66
2022-09-22T02:40:43.081Z,100563.31
2022-09-22T02:46:20.425Z,100561.22
2022-09-22T02:51:23.617Z,100553.13
2022-09-22T02:56:26.401Z,100550.91
2022-09-22T03:01:29.148Z,100550.34
2022-09-22T03:06:32.541Z,100552.28
2022-09-22T03:11:35.538Z,100550.44
2022-09-22T03:16:38.428Z,100555.56
2022-09-22T03:21:41.192Z,100554.69
2022-09-22T03:26:43.891Z,100555.09
2022-09-22T03:31:46.815Z,100556.34
2022-09-22T03:36:50.128Z,100554.94
2022-09-22T03:41:52.876Z,100557.41
2022-09-22T03:46:55.855Z,100545.97
2022-09-22T03:51:58.648Z,100549.28
2022-09-22T03:57:04.251Z,100553.13
2022-09-22T04:02:07.724Z,100550.63
2022-09-22T04:07:10.628Z,100553.13
2022-09-22T04:12:13.430Z,100539.50
2022-09-22T04:17:16.244Z,100550.63
2022-09-22T04:22:19.155Z,100553.59
2022-09-22T04:27:21.973Z,100552.75
2022-09-22T04:32:24.893Z,100562.34
2022-09-22T04:37:27.803Z,100562.94
2022-09-22T04:42:30.776Z,100570.72
2022-09-22T04:47:34.075Z,100552.66
2022-09-22T04:52:37.101Z,100560.75
2022-09-22T04:57:40.059Z,100567.69
2022-09-22T05:02:43.056Z,100552.81
2022-09-22T05:07:49.075Z,100545.59
2022-09-22T05:12:55.832Z,100545.22
2022-09-22T05:17:59.453Z,100555.38
2022-09-22T05:23:02.366Z,100567.75
2022-09-22T05:28:05.284Z,100562.22
2022-09-22T05:33:08.394Z,100566.44
2022-09-22T05:38:11.234Z,100561.16
2022-09-22T05:43:15.002Z,100553.69
2022-09-22T05:48:17.807Z,100567.91
2022-09-22T05:53:20.829Z,100577.09
2022-09-22T05:58:24.551Z,100578.50
2022-09-22T06:03:27.361Z,100580.72
2022-09-22T06:08:30.993Z,100580.72
2022-09-22T06:13:33.888Z,100575.53
2022-09-22T06:18:36.853Z,100567.28
2022-09-22T06:23:42.950Z,100580.06
2022-09-22T06:28:47.219Z,100571.47
2022-09-22T06:33:50.490Z,100565.88
2022-09-22T06:38:56.248Z,100556.25
2022-09-22T06:43:59.474Z,100561.34
2022-09-22T06:49:02.855Z,100574.81
2022-09-22T06:54:06.848Z,100561.81
2022-09-22T06:59:13.060Z,100571.13
2022-09-22T07:04:17.747Z,100564.78
2022-09-22T07:09:21.265Z,100552.44
2022-09-22T07:14:25.491Z,100554.47
2022-09-22T07:19:28.376Z,100566.19
2022-09-22T07:24:31.150Z,100569.41
2022-09-22T07:29:33.971Z,100573.63
2022-09-22T07:34:36.745Z,100573.97
2022-09-22T07:39:39.513Z,100574.97
2022-09-22T07:45:01.105Z,100565.03
2022-09-22T07:50:04.824Z,100575.72
2022-09-22T07:55:08.342Z,100570.06
2022-09-22T08:00:12.782Z,100564.75
2022-09-22T08:05:16.615Z,100565.72
2022-09-22T08:10:20.205Z,100570.66
2022-09-22T08:15:27.095Z,100562.22
2022-09-22T08:20:30.425Z,100562.75
2022-09-22T08:25:33.150Z,100553.34
2022-09-22T08:30:36.436Z,100556.22
2022-09-22T08:35:51.134Z,100546.44
2022-09-22T08:41:31.716Z,100549.25
2022-09-22T08:46:38.453Z,100550.81
2022-09-22T08:51:52.289Z,100547.53
2022-09-22T08:57:00.859Z,100550.78
2022-09-22T09:02:34.843Z,100549.34
2022-09-22T09:07:46.733Z,100534.50
2022-09-22T09:13:30.700Z,100545.53
2022-09-22T09:18:39.439Z,100548.75
2022-09-22T09:29:22.160Z,100547.66
2022-09-22T09:34:29.098Z,100551.56
2022-09-22T09:39:41.874Z,100550.59
2022-09-22T09:44:45.669Z,100539.25
2022-09-22T09:49:52.727Z,100539.88
2022-09-22T09:54:55.920Z,100539.47
2022-09-22T10:00:33.949Z,100536.78
2022-09-22T10:05:37.658Z,100535.16
2022-09-22T10:10:42.250Z,100534.56
2022-09-22T10:16:20.255Z,100526.94
2022-09-22T10:21:24.870Z,100528.56
2022-09-22T10:26:33.550Z,100535.19
2022-09-22T10:31:37.949Z,100532.50
2022-09-22T10:36:45.793Z,100535.75
2022-09-22T10:41:49.269Z,100538.75
2022-09-22T10:47:14.103Z,100531.56
2022-09-22T10:52:19.590Z,100524.53
2022-09-22T10:58:02.613Z,100521.34
2022-09-22T11:03:47.403Z,100515.22
2022-09-22T11:09:25.827Z,100512.88
2022-09-22T11:14:45.816Z,100497.31
2022-09-22T11:20:09.997Z,100488.03
2022-09-22T11:26:14.154Z,100475.69
2022-09-22T11:32:05.557Z,100467.06
2022-09-22T11:37:25.946Z,100467.44
2022-09-22T11:42:47.758Z,100455.97
2022-09-22T11:48:21.503Z,100455.22
2022-09-22T11:53:46.007Z,100446.00
2022-09-22T11:58:52.821Z,100449.53
2022-09-22T12:04:35.818Z,100451.03
2022-09-22T12:09:52.015Z,100436.75
2022-09-22T12:15:20.558Z,100436.72
2022-09-22T12:20:53.651Z,100442.13
2022-09-22T12:26:12.377Z,100435.13
2022-09-22T12:31:21.129Z,100431.84
2022-09-22T12:36:30.889Z,100431.41
2022-09-22T12:41:33.574Z,100412.78
2022-09-22T12:46:36.264Z,100412.38
2022-09-22T12:51:39.015Z,100404.72
2022-09-22T12:56:49.024Z,100406.16
2022-09-22T13:02:12.025Z,100383.84
2022-09-22T13:07:37.992Z,100393.97
2022-09-22T13:12:40.615Z,100389.22
2022-09-22T13:17:49.660Z,100387.41
2022-09-22T13:22:52.888Z,100383.06
2022-09-22T13:28:16.464Z,100391.53
2022-09-22T13:33:24.115Z,100375.44
2022-09-22T13:38:27.646Z,100380.16
2022-09-22T13:43:39.262Z,100382.84
2022-09-22T13:48:42.025Z,100368.16
2022-09-22T13:53:50.216Z,100377.19
2022-09-22T13:58:57.325Z,100368.47
2022-09-22T14:04:00.398Z,100374.63
2022-09-22T14:09:03.844Z,100374.22
2022-09-22T14:14:21.061Z,100375.38
2022-09-22T14:19:37.480Z,100373.22
2022-09-22T14:24:44.962Z,100377.09
2022-09-22T14:29:51.071Z,100378.06
2022-09-22T14:34:58.891Z,100366.84
2022-09-22T14:40:04.996Z,100373.25
2022-09-22T14:45:10.794Z,100372.59
2022-09-22T14:50:38.322Z,100367.00
2022-09-22T14:55:44.753Z,100364.28
2022-09-22T15:01:16.679Z,100370.16
2022-09-22T15:06:19.492Z,100360.28
2022-09-22T15:11:42.093Z,100364.69
2022-09-22T15:16:44.858Z,100364.69
2022-09-22T15:21:48.039Z,100369.25
2022-09-22T15:26:50.834Z,100367.31
2022-09-22T15:31:53.535Z,100369.53
2022-09-22T15:36:57.168Z,100360.41
2022-09-22T15:42:07.330Z,100361.50
2022-09-22T15:47:17.021Z,100358.22
2022-09-22T15:52:19.678Z,100365.50
2022-09-22T15:57:22.336Z,100364.03
2022-09-22T16:02:25.947Z,100378.28
2022-09-22T16:07:28.600Z,100381.91
2022-09-22T16:12:31.206Z,100378.28
2022-09-22T16:17:33.826Z,100382.44
2022-09-22T16:22:36.521Z,100382.81
2022-09-22T16:27:39.230Z,100387.47
2022-09-22T16:32:42.979Z,100393.38
2022-09-22T16:37:46.231Z,100398.53
2022-09-22T16:42:48.856Z,100392.00
2022-09-22T16:47:51.679Z,100398.38
2022-09-22T16:52:54.866Z,100399.66
2022-09-22T16:57:58.783Z,100413.44
2022-09-22T17:03:01.515Z,100424.31
2022-09-22T17:08:06.797Z,100422.66
2022-09-22T17:13:09.692Z,100431.06
2022-09-22T17:18:12.555Z,100434.84
2022-09-22T17:23:15.608Z,100446.25
2022-09-22T17:28:18.295Z,100444.47
2022-09-22T17:33:21.671Z,100449.34
2022-09-22T17:38:27.008Z,100450.56
2022-09-22T17:43:29.707Z,100449.72
2022-09-22T17:48:50.878Z,100462.25
2022-09-22T17:54:11.995Z,100468.69
2022-09-22T17:59:15.071Z,100472.88
2022-09-22T18:04:17.710Z,100475.88
2022-09-22T18:09:20.925Z,100483.34
2022-09-22T18:14:25.255Z,100479.53
2022-09-22T18:19:30.621Z,100479.72
2022-09-22T18:24:37.893Z,100488.19
2022-09-22T18:29:40.660Z,100492.19
2022-09-22T18:34:43.680Z,100495.34
2022-09-22T18:39:50.400Z,100491.19
2022-09-22T18:44:53.267Z,100498.50
2022-09-22T18:49:57.006Z,100501.53
2022-09-22T18:55:00.506Z,100508.66
2022-09-22T19:00:04.505Z,100510.81
2022-09-22T19:05:07.373Z,100508.16
2022-09-22T19:10:12.459Z,100503.47
2022-09-22T19:15:18.806Z,100501.47
2022-09-22T19:20:25.113Z,100499.09
2022-09-22T19:25:28.943Z,100493.44
2022-09-22T19:30:31.805Z,100501.75
2022-09-22T19:35:38.938Z,100498.75
2022-09-22T19:40:42.042Z,100498.88
2022-09-22T19:45:44.683Z,100514.97
2022-09-22T19:50:47.647Z,100518.88
2022-09-22T19:55:50.473Z,100511.97
2022-09-22T20:00:53.078Z,100519.28
2022-09-22T20:05:55.735Z,100525.31
2022-09-22T20:11:22.670Z,100525.28
2022-09-22T20:16:21.418Z,100527.56
2022-09-22T20:21:26.061Z,100527.72
2022-09-22T20:26:28.750Z,100522.69
2022-09-22T20:31:31.449Z,100529.38
2022-09-22T20:36:37.034Z,100526.06
2022-09-22T20:41:41.748Z,100530.59
2022-09-22T20:46:47.872Z,100527.97
2022-09-22T20:51:50.966Z,100533.28
2022-09-22T20:56:54.518Z,100526.97
2022-09-22T21:02:00.681Z,100546.88
2022-09-22T21:07:03.727Z,100548.31
2022-09-22T21:12:06.865Z,100560.50
2022-09-22T21:17:09.509Z,100558.94
2022-09-22T21:22:13.003Z,100563.03
2022-09-22T21:27:15.735Z,100552.63
2022-09-22T21:32:20.045Z,100560.28
2022-09-22T21:37:23.501Z,100541.41
2022-09-22T21:42:26.904Z,100560.34
2022-09-22T21:47:29.586Z,100554.53
2022-09-22T21:52:32.186Z,100547.00
2022-09-22T21:57:34.840Z,100551.19
2022-09-22T22:02:57.457Z,100554.53
2022-09-22T22:08:00.227Z,100546.59
2022-09-22T22:13:03.002Z,100567.34
2022-09-22T22:18:05.792Z,100560.09
2022-09-22T22:23:09.483Z,100550.91
2022-09-22T22:28:12.093Z,100557.91
2022-09-22T22:33:14.729Z,100557.88
2022-09-22T22:38:17.842Z,100560.94
2022-09-22T22:43:21.044Z,100545.19
2022-09-22T22:48:24.300Z,100557.13
2022-09-22T22:53:26.894Z,100558.41
2022-09-22T22:58:31.795Z,100542.94
2022-09-22T23:03:34.423Z,100546.28
2022-09-22T23:08:37.441Z,100530.97
2022-09-22T23:13:45.254Z,100531.22
2022-09-22T23:18:48.204Z,100533.44
2022-09-22T23:23:50.838Z,100532.44
2022-09-22T23:28:54.057Z,100530.78
2022-09-22T23:33:57.566Z,100533.72
2022-09-22T23:39:05.022Z,100531.31
2022-09-22T23:44:07.907Z,100529.66
2022-09-22T23:49:10.472Z,100532.69
2022-09-22T23:54:15.949Z,100533.22
2022-09-22T23:59:18.541Z,100530.28
